sensor_id;sensor_type;location;lat;lon;timestamp;P1;durP1;ratioP1;P2;durP2;ratioP2
1350;SDS011;669;50.206;9.998;2022-11-15T00:01:08;4.57;;;4.07;;
1350;SDS011;669;50.206;9.998;2022-11-15T00:03:37;4.97;;;4.33;;
1350;SDS011;669;50.206;9.998;2022-11-15T00:06:05;4.67;;;4.13;;
1350;SDS011;669;50.206;9.998;2022-11-15T00:08:33;4.57;;;4.17;;
1350;SDS011;669;50.206;9.998;2022-11-15T00:11:01;4.53;;;4.13;;
1350;SDS011;669;50.206;9.998;2022-11-15T00:13:30;4.50;;;4.07;;
1350;SDS011;669;50.206;9.998;2022-11-15T00:16:00;3.80;;;3.47;;
1350;SDS011;669;50.206;9.998;2022-11-15T00:18:28;3.83;;;3.53;;
1350;SDS011;669;50.206;9.998;2022-11-15T00:21:02;5.00;;;4.50;;
1350;SDS011;669;50.206;9.998;2022-11-15T00:23:31;5.00;;;4.40;;
1350;SDS011;669;50.206;9.998;2022-11-15T00:26:00;4.50;;;4.10;;
1350;SDS011;669;50.206;9.998;2022-11-15T00:28:28;5.73;;;5.17;;
1350;SDS011;669;50.206;9.998;2022-11-15T00:31:00;5.57;;;4.83;;
1350;SDS011;669;50.206;9.998;2022-11-15T00:33:29;4.80;;;4.40;;
1350;SDS011;669;50.206;9.998;2022-11-15T00:36:01;4.50;;;4.17;;
1350;SDS011;669;50.206;9.998;2022-11-15T00:38:31;5.40;;;4.60;;
1350;SDS011;669;50.206;9.998;2022-11-15T00:41:00;5.70;;;4.20;;
1350;SDS011;669;50.206;9.998;2022-11-15T00:43:34;4.97;;;4.47;;
1350;SDS011;669;50.206;9.998;2022-11-15T00:46:04;5.53;;;4.23;;
1350;SDS011;669;50.206;9.998;2022-11-15T00:48:34;3.77;;;3.40;;
1350;SDS011;669;50.206;9.998;2022-11-15T00:51:02;7.13;;;4.03;;
1350;SDS011;669;50.206;9.998;2022-11-15T00:53:30;3.43;;;3.13;;
1350;SDS011;669;50.206;9.998;2022-11-15T00:55:58;3.90;;;3.60;;
1350;SDS011;669;50.206;9.998;2022-11-15T00:58:26;4.93;;;3.93;;
1350;SDS011;669;50.206;9.998;2022-11-15T01:00:54;5.50;;;3.80;;
1350;SDS011;669;50.206;9.998;2022-11-15T01:03:24;4.43;;;4.03;;
1350;SDS011;669;50.206;9.998;2022-11-15T01:05:52;3.83;;;3.30;;
1350;SDS011;669;50.206;9.998;2022-11-15T01:08:20;3.70;;;3.37;;
1350;SDS011;669;50.206;9.998;2022-11-15T01:10:48;3.80;;;3.50;;
1350;SDS011;669;50.206;9.998;2022-11-15T01:13:15;5.17;;;4.60;;
1350;SDS011;669;50.206;9.998;2022-11-15T01:15:44;4.97;;;4.57;;
1350;SDS011;669;50.206;9.998;2022-11-15T01:18:12;5.10;;;3.97;;
1350;SDS011;669;50.206;9.998;2022-11-15T01:20:41;4.40;;;4.00;;
1350;SDS011;669;50.206;9.998;2022-11-15T01:23:10;3.90;;;3.40;;
1350;SDS011;669;50.206;9.998;2022-11-15T01:25:38;4.83;;;3.90;;
1350;SDS011;669;50.206;9.998;2022-11-15T01:28:05;5.17;;;3.50;;
1350;SDS011;669;50.206;9.998;2022-11-15T01:30:35;4.30;;;3.90;;
1350;SDS011;669;50.206;9.998;2022-11-15T01:33:03;3.37;;;3.07;;
1350;SDS011;669;50.206;9.998;2022-11-15T01:35:31;4.50;;;4.10;;
1350;SDS011;669;50.206;9.998;2022-11-15T01:38:00;3.83;;;3.50;;
1350;SDS011;669;50.206;9.998;2022-11-15T01:40:28;4.57;;;4.17;;
1350;SDS011;669;50.206;9.998;2022-11-15T01:42:56;3.53;;;3.17;;
1350;SDS011;669;50.206;9.998;2022-11-15T01:45:24;4.40;;;4.00;;
1350;SDS011;669;50.206;9.998;2022-11-15T01:47:53;4.47;;;4.03;;
1350;SDS011;669;50.206;9.998;2022-11-15T01:50:23;4.13;;;3.73;;
1350;SDS011;669;50.206;9.998;2022-11-15T01:52:55;3.93;;;3.63;;
1350;SDS011;669;50.206;9.998;2022-11-15T01:55:25;4.50;;;3.60;;
1350;SDS011;669;50.206;9.998;2022-11-15T01:57:56;3.50;;;3.20;;
1350;SDS011;669;50.206;9.998;2022-11-15T02:00:26;4.03;;;3.63;;
1350;SDS011;669;50.206;9.998;2022-11-15T02:02:55;3.50;;;3.20;;
1350;SDS011;669;50.206;9.998;2022-11-15T02:05:23;2.80;;;2.60;;
1350;SDS011;669;50.206;9.998;2022-11-15T02:07:51;3.57;;;3.00;;
1350;SDS011;669;50.206;9.998;2022-11-15T02:10:20;3.50;;;3.20;;
1350;SDS011;669;50.206;9.998;2022-11-15T02:12:51;3.40;;;3.10;;
1350;SDS011;669;50.206;9.998;2022-11-15T02:15:20;3.93;;;3.50;;
1350;SDS011;669;50.206;9.998;2022-11-15T02:17:53;3.80;;;3.47;;
1350;SDS011;669;50.206;9.998;2022-11-15T02:23:31;3.53;;;3.23;;
1350;SDS011;669;50.206;9.998;2022-11-15T02:29:47;3.70;;;3.37;;
1350;SDS011;669;50.206;9.998;2022-11-15T02:32:38;5.27;;;3.93;;
1350;SDS011;669;50.206;9.998;2022-11-15T02:35:12;3.40;;;3.10;;
1350;SDS011;669;50.206;9.998;2022-11-15T02:37:51;3.27;;;2.97;;
1350;SDS011;669;50.206;9.998;2022-11-15T02:40:26;3.80;;;3.47;;
1350;SDS011;669;50.206;9.998;2022-11-15T02:43:04;4.63;;;3.27;;
1350;SDS011;669;50.206;9.998;2022-11-15T02:45:54;3.93;;;3.33;;
1350;SDS011;669;50.206;9.998;2022-11-15T02:48:32;2.97;;;2.77;;
1350;SDS011;669;50.206;9.998;2022-11-15T02:51:01;3.00;;;2.80;;
1350;SDS011;669;50.206;9.998;2022-11-15T02:53:30;3.50;;;2.97;;
1350;SDS011;669;50.206;9.998;2022-11-15T02:55:58;2.80;;;2.60;;
1350;SDS011;669;50.206;9.998;2022-11-15T02:58:34;2.70;;;2.50;;
1350;SDS011;669;50.206;9.998;2022-11-15T03:01:18;2.73;;;2.53;;
1350;SDS011;669;50.206;9.998;2022-11-15T03:03:59;2.23;;;2.13;;
1350;SDS011;669;50.206;9.998;2022-11-15T03:06:36;2.93;;;2.60;;
1350;SDS011;669;50.206;9.998;2022-11-15T03:09:09;2.50;;;2.30;;
1350;SDS011;669;50.206;9.998;2022-11-15T03:11:46;3.50;;;3.20;;
1350;SDS011;669;50.206;9.998;2022-11-15T03:14:19;2.97;;;2.77;;
1350;SDS011;669;50.206;9.998;2022-11-15T03:16:51;3.27;;;3.00;;
1350;SDS011;669;50.206;9.998;2022-11-15T03:19:28;3.20;;;2.40;;
1350;SDS011;669;50.206;9.998;2022-11-15T03:21:59;3.37;;;2.70;;
1350;SDS011;669;50.206;9.998;2022-11-15T03:24:31;3.00;;;2.80;;
1350;SDS011;669;50.206;9.998;2022-11-15T03:27:00;3.00;;;2.70;;
1350;SDS011;669;50.206;9.998;2022-11-15T03:29:31;4.07;;;3.30;;
1350;SDS011;669;50.206;9.998;2022-11-15T03:32:03;3.60;;;3.27;;
1350;SDS011;669;50.206;9.998;2022-11-15T03:34:39;3.20;;;2.90;;
1350;SDS011;669;50.206;9.998;2022-11-15T03:37:11;3.27;;;3.00;;
1350;SDS011;669;50.206;9.998;2022-11-15T03:39:42;2.20;;;2.00;;
1350;SDS011;669;50.206;9.998;2022-11-15T03:42:13;2.73;;;2.53;;
1350;SDS011;669;50.206;9.998;2022-11-15T03:44:51;3.47;;;3.17;;
1350;SDS011;669;50.206;9.998;2022-11-15T03:47:26;2.60;;;2.40;;
1350;SDS011;669;50.206;9.998;2022-11-15T03:49:59;3.73;;;3.33;;
1350;SDS011;669;50.206;9.998;2022-11-15T03:52:31;4.97;;;3.83;;
1350;SDS011;669;50.206;9.998;2022-11-15T03:55:00;4.60;;;3.10;;
1350;SDS011;669;50.206;9.998;2022-11-15T03:57:30;4.33;;;3.93;;
1350;SDS011;669;50.206;9.998;2022-11-15T03:59:58;2.97;;;2.77;;
1350;SDS011;669;50.206;9.998;2022-11-15T04:02:26;3.07;;;2.83;;
1350;SDS011;669;50.206;9.998;2022-11-15T04:04:54;3.53;;;2.97;;
1350;SDS011;669;50.206;9.998;2022-11-15T04:07:24;3.17;;;2.87;;
1350;SDS011;669;50.206;9.998;2022-11-15T04:09:52;4.60;;;3.37;;
1350;SDS011;669;50.206;9.998;2022-11-15T04:12:29;5.93;;;3.57;;
1350;SDS011;669;50.206;9.998;2022-11-15T04:15:00;4.27;;;2.67;;
1350;SDS011;669;50.206;9.998;2022-11-15T04:17:37;3.40;;;3.10;;
1350;SDS011;669;50.206;9.998;2022-11-15T04:20:07;3.00;;;2.60;;
1350;SDS011;669;50.206;9.998;2022-11-15T04:22:56;3.10;;;2.83;;
1350;SDS011;669;50.206;9.998;2022-11-15T04:25:43;2.73;;;2.50;;
1350;SDS011;669;50.206;9.998;2022-11-15T04:28:12;3.17;;;2.40;;
1350;SDS011;669;50.206;9.998;2022-11-15T04:30:40;3.53;;;3.03;;
1350;SDS011;669;50.206;9.998;2022-11-15T04:33:07;2.50;;;2.30;;
1350;SDS011;669;50.206;9.998;2022-11-15T04:35:35;2.63;;;2.43;;
1350;SDS011;669;50.206;9.998;2022-11-15T04:38:06;2.60;;;2.40;;
1350;SDS011;669;50.206;9.998;2022-11-15T04:40:34;4.97;;;2.80;;
1350;SDS011;669;50.206;9.998;2022-11-15T04:43:02;3.23;;;2.30;;
1350;SDS011;669;50.206;9.998;2022-11-15T04:45:31;3.67;;;2.60;;
1350;SDS011;669;50.206;9.998;2022-11-15T04:47:59;2.27;;;2.07;;
1350;SDS011;669;50.206;9.998;2022-11-15T04:50:27;3.10;;;2.80;;
1350;SDS011;669;50.206;9.998;2022-11-15T04:52:55;3.00;;;2.53;;
1350;SDS011;669;50.206;9.998;2022-11-15T04:55:24;2.80;;;2.60;;
1350;SDS011;669;50.206;9.998;2022-11-15T04:57:58;2.37;;;2.17;;
1350;SDS011;669;50.206;9.998;2022-11-15T05:00:27;3.13;;;2.77;;
1350;SDS011;669;50.206;9.998;2022-11-15T05:02:56;2.73;;;2.53;;
1350;SDS011;669;50.206;9.998;2022-11-15T05:05:42;3.13;;;2.90;;
1350;SDS011;669;50.206;9.998;2022-11-15T05:08:10;4.03;;;2.70;;
1350;SDS011;669;50.206;9.998;2022-11-15T05:10:39;2.63;;;2.43;;
1350;SDS011;669;50.206;9.998;2022-11-15T05:13:07;2.40;;;2.20;;
1350;SDS011;669;50.206;9.998;2022-11-15T05:15:35;2.60;;;2.40;;
1350;SDS011;669;50.206;9.998;2022-11-15T05:18:03;3.33;;;2.73;;
1350;SDS011;669;50.206;9.998;2022-11-15T05:20:31;2.93;;;2.63;;
1350;SDS011;669;50.206;9.998;2022-11-15T05:22:58;2.53;;;2.30;;
1350;SDS011;669;50.206;9.998;2022-11-15T05:25:27;2.43;;;2.27;;
1350;SDS011;669;50.206;9.998;2022-11-15T05:27:56;5.37;;;3.20;;
1350;SDS011;669;50.206;9.998;2022-11-15T05:30:24;2.80;;;2.47;;
1350;SDS011;669;50.206;9.998;2022-11-15T05:32:52;2.30;;;2.10;;
1350;SDS011;669;50.206;9.998;2022-11-15T05:35:22;2.50;;;2.30;;
1350;SDS011;669;50.206;9.998;2022-11-15T05:37:54;2.70;;;2.50;;
1350;SDS011;669;50.206;9.998;2022-11-15T05:40:22;2.83;;;2.63;;
1350;SDS011;669;50.206;9.998;2022-11-15T05:42:51;5.67;;;3.47;;
1350;SDS011;669;50.206;9.998;2022-11-15T05:45:20;5.20;;;3.50;;
1350;SDS011;669;50.206;9.998;2022-11-15T05:47:52;4.53;;;3.40;;
1350;SDS011;669;50.206;9.998;2022-11-15T05:50:22;3.47;;;3.17;;
1350;SDS011;669;50.206;9.998;2022-11-15T05:52:50;2.63;;;2.50;;
1350;SDS011;669;50.206;9.998;2022-11-15T05:55:19;3.10;;;2.80;;
1350;SDS011;669;50.206;9.998;2022-11-15T05:57:47;3.20;;;2.90;;
1350;SDS011;669;50.206;9.998;2022-11-15T06:00:15;2.97;;;2.70;;
1350;SDS011;669;50.206;9.998;2022-11-15T06:02:45;3.23;;;2.50;;
1350;SDS011;669;50.206;9.998;2022-11-15T06:05:13;3.33;;;3.10;;
1350;SDS011;669;50.206;9.998;2022-11-15T06:07:41;3.07;;;2.87;;
1350;SDS011;669;50.206;9.998;2022-11-15T06:10:10;3.20;;;2.77;;
1350;SDS011;669;50.206;9.998;2022-11-15T06:12:38;2.90;;;2.70;;
1350;SDS011;669;50.206;9.998;2022-11-15T06:15:07;3.90;;;3.00;;
1350;SDS011;669;50.206;9.998;2022-11-15T06:17:35;2.90;;;2.70;;
1350;SDS011;669;50.206;9.998;2022-11-15T06:20:05;4.90;;;3.67;;
1350;SDS011;669;50.206;9.998;2022-11-15T06:22:33;5.47;;;3.20;;
1350;SDS011;669;50.206;9.998;2022-11-15T06:25:01;3.57;;;3.20;;
1350;SDS011;669;50.206;9.998;2022-11-15T06:27:31;4.50;;;3.60;;
1350;SDS011;669;50.206;9.998;2022-11-15T06:29:59;5.50;;;5.00;;
1350;SDS011;669;50.206;9.998;2022-11-15T06:32:28;5.80;;;4.60;;
1350;SDS011;669;50.206;9.998;2022-11-15T06:34:56;4.50;;;4.10;;
1350;SDS011;669;50.206;9.998;2022-11-15T06:37:26;5.13;;;4.63;;
1350;SDS011;669;50.206;9.998;2022-11-15T06:39:53;7.30;;;5.20;;
1350;SDS011;669;50.206;9.998;2022-11-15T06:42:21;4.93;;;4.50;;
1350;SDS011;669;50.206;9.998;2022-11-15T06:44:49;4.33;;;3.93;;
1350;SDS011;669;50.206;9.998;2022-11-15T06:47:17;6.70;;;3.90;;
1350;SDS011;669;50.206;9.998;2022-11-15T06:49:45;5.03;;;4.50;;
1350;SDS011;669;50.206;9.998;2022-11-15T06:52:13;3.60;;;3.30;;
1350;SDS011;669;50.206;9.998;2022-11-15T06:54:42;4.00;;;3.70;;
1350;SDS011;669;50.206;9.998;2022-11-15T06:57:10;4.43;;;4.00;;
1350;SDS011;669;50.206;9.998;2022-11-15T06:59:38;5.43;;;4.37;;
1350;SDS011;669;50.206;9.998;2022-11-15T07:02:10;5.83;;;5.00;;
1350;SDS011;669;50.206;9.998;2022-11-15T07:04:39;6.70;;;4.83;;
1350;SDS011;669;50.206;9.998;2022-11-15T07:07:07;5.63;;;4.40;;
1350;SDS011;669;50.206;9.998;2022-11-15T07:09:35;4.60;;;4.20;;
1350;SDS011;669;50.206;9.998;2022-11-15T07:12:05;4.53;;;4.07;;
1350;SDS011;669;50.206;9.998;2022-11-15T07:14:33;3.67;;;3.37;;
1350;SDS011;669;50.206;9.998;2022-11-15T07:17:02;4.93;;;4.20;;
1350;SDS011;669;50.206;9.998;2022-11-15T07:19:31;3.63;;;3.33;;
1350;SDS011;669;50.206;9.998;2022-11-15T07:21:59;7.03;;;3.93;;
1350;SDS011;669;50.206;9.998;2022-11-15T07:24:27;7.03;;;4.07;;
1350;SDS011;669;50.206;9.998;2022-11-15T07:26:55;3.80;;;3.47;;
1350;SDS011;669;50.206;9.998;2022-11-15T07:29:24;6.77;;;3.53;;
1350;SDS011;669;50.206;9.998;2022-11-15T07:31:52;4.10;;;3.80;;
1350;SDS011;669;50.206;9.998;2022-11-15T07:34:20;3.97;;;3.57;;
1350;SDS011;669;50.206;9.998;2022-11-15T07:36:49;4.20;;;3.80;;
1350;SDS011;669;50.206;9.998;2022-11-15T07:39:17;4.60;;;4.20;;
1350;SDS011;669;50.206;9.998;2022-11-15T07:41:45;5.77;;;4.50;;
1350;SDS011;669;50.206;9.998;2022-11-15T07:44:15;3.60;;;3.30;;
1350;SDS011;669;50.206;9.998;2022-11-15T07:46:44;4.20;;;3.80;;
1350;SDS011;669;50.206;9.998;2022-11-15T07:49:12;3.70;;;3.40;;
1350;SDS011;669;50.206;9.998;2022-11-15T07:51:40;9.60;;;3.30;;
1350;SDS011;669;50.206;9.998;2022-11-15T07:54:08;3.70;;;3.40;;
1350;SDS011;669;50.206;9.998;2022-11-15T07:56:36;4.30;;;3.90;;
1350;SDS011;669;50.206;9.998;2022-11-15T07:59:05;3.57;;;3.27;;
1350;SDS011;669;50.206;9.998;2022-11-15T08:01:33;4.30;;;3.90;;
1350;SDS011;669;50.206;9.998;2022-11-15T08:04:02;4.93;;;4.43;;
1350;SDS011;669;50.206;9.998;2022-11-15T08:06:30;4.33;;;4.03;;
1350;SDS011;669;50.206;9.998;2022-11-15T08:08:58;5.93;;;5.00;;
1350;SDS011;669;50.206;9.998;2022-11-15T08:11:26;4.67;;;4.27;;
1350;SDS011;669;50.206;9.998;2022-11-15T08:13:54;5.97;;;3.60;;
1350;SDS011;669;50.206;9.998;2022-11-15T08:16:22;4.10;;;3.80;;
1350;SDS011;669;50.206;9.998;2022-11-15T08:18:50;4.80;;;4.20;;
1350;SDS011;669;50.206;9.998;2022-11-15T08:21:20;4.03;;;3.63;;
1350;SDS011;669;50.206;9.998;2022-11-15T08:23:48;3.70;;;3.30;;
1350;SDS011;669;50.206;9.998;2022-11-15T08:26:17;4.33;;;3.90;;
1350;SDS011;669;50.206;9.998;2022-11-15T08:28:45;4.00;;;3.70;;
1350;SDS011;669;50.206;9.998;2022-11-15T08:31:14;5.07;;;4.20;;
1350;SDS011;669;50.206;9.998;2022-11-15T08:33:44;4.60;;;4.10;;
1350;SDS011;669;50.206;9.998;2022-11-15T08:36:12;4.90;;;4.27;;
1350;SDS011;669;50.206;9.998;2022-11-15T08:38:43;5.17;;;4.67;;
1350;SDS011;669;50.206;9.998;2022-11-15T08:41:12;4.67;;;3.90;;
1350;SDS011;669;50.206;9.998;2022-11-15T08:43:49;5.73;;;4.30;;
1350;SDS011;669;50.206;9.998;2022-11-15T08:46:17;4.10;;;3.57;;
1350;SDS011;669;50.206;9.998;2022-11-15T08:48:45;5.80;;;4.70;;
1350;SDS011;669;50.206;9.998;2022-11-15T08:51:13;5.10;;;4.60;;
1350;SDS011;669;50.206;9.998;2022-11-15T08:53:41;5.30;;;4.80;;
1350;SDS011;669;50.206;9.998;2022-11-15T08:56:11;6.20;;;5.10;;
1350;SDS011;669;50.206;9.998;2022-11-15T08:58:40;5.83;;;5.03;;
1350;SDS011;669;50.206;9.998;2022-11-15T09:01:14;5.40;;;4.87;;
1350;SDS011;669;50.206;9.998;2022-11-15T09:03:44;7.23;;;6.03;;
1350;SDS011;669;50.206;9.998;2022-11-15T09:06:12;7.07;;;5.57;;
1350;SDS011;669;50.206;9.998;2022-11-15T09:08:41;6.23;;;5.20;;
1350;SDS011;669;50.206;9.998;2022-11-15T09:11:15;5.20;;;4.70;;
1350;SDS011;669;50.206;9.998;2022-11-15T09:13:46;5.17;;;4.20;;
1350;SDS011;669;50.206;9.998;2022-11-15T09:16:14;5.43;;;4.90;;
1350;SDS011;669;50.206;9.998;2022-11-15T09:18:42;5.30;;;4.80;;
1350;SDS011;669;50.206;9.998;2022-11-15T09:21:10;5.90;;;4.37;;
1350;SDS011;669;50.206;9.998;2022-11-15T09:23:38;5.70;;;4.57;;
1350;SDS011;669;50.206;9.998;2022-11-15T09:26:06;5.30;;;4.77;;
1350;SDS011;669;50.206;9.998;2022-11-15T09:28:36;6.10;;;5.20;;
1350;SDS011;669;50.206;9.998;2022-11-15T09:31:08;5.80;;;4.60;;
1350;SDS011;669;50.206;9.998;2022-11-15T09:33:36;4.17;;;3.77;;
1350;SDS011;669;50.206;9.998;2022-11-15T09:36:05;5.43;;;4.93;;
1350;SDS011;669;50.206;9.998;2022-11-15T09:38:35;6.50;;;4.00;;
1350;SDS011;669;50.206;9.998;2022-11-15T09:47:28;4.10;;;3.80;;
1350;SDS011;669;50.206;9.998;2022-11-15T09:50:17;4.50;;;4.10;;
1350;SDS011;669;50.206;9.998;2022-11-15T09:52:56;4.17;;;3.80;;
1350;SDS011;669;50.206;9.998;2022-11-15T09:55:26;3.40;;;3.10;;
1350;SDS011;669;50.206;9.998;2022-11-15T09:58:03;4.87;;;4.37;;
1350;SDS011;669;50.206;9.998;2022-11-15T10:00:44;3.93;;;3.37;;
1350;SDS011;669;50.206;9.998;2022-11-15T10:03:20;4.00;;;3.67;;
1350;SDS011;669;50.206;9.998;2022-11-15T10:05:54;3.43;;;3.13;;
1350;SDS011;669;50.206;9.998;2022-11-15T10:08:27;3.93;;;3.63;;
1350;SDS011;669;50.206;9.998;2022-11-15T10:11:03;4.20;;;3.80;;
1350;SDS011;669;50.206;9.998;2022-11-15T10:13:54;4.50;;;3.53;;
1350;SDS011;669;50.206;9.998;2022-11-15T10:19:34;4.57;;;4.10;;
1350;SDS011;669;50.206;9.998;2022-11-15T10:22:12;4.00;;;3.70;;
1350;SDS011;669;50.206;9.998;2022-11-15T10:24:59;4.40;;;3.43;;
1350;SDS011;669;50.206;9.998;2022-11-15T10:27:43;3.90;;;3.27;;
1350;SDS011;669;50.206;9.998;2022-11-15T10:30:15;3.67;;;3.33;;
1350;SDS011;669;50.206;9.998;2022-11-15T10:32:45;3.43;;;3.23;;
1350;SDS011;669;50.206;9.998;2022-11-15T10:35:17;3.57;;;3.27;;
1350;SDS011;669;50.206;9.998;2022-11-15T10:37:47;5.13;;;3.93;;
1350;SDS011;669;50.206;9.998;2022-11-15T10:40:18;5.13;;;4.37;;
1350;SDS011;669;50.206;9.998;2022-11-15T10:43:03;4.10;;;3.30;;
1350;SDS011;669;50.206;9.998;2022-11-15T10:45:33;4.20;;;3.90;;
1350;SDS011;669;50.206;9.998;2022-11-15T10:50:50;4.23;;;3.30;;
1350;SDS011;669;50.206;9.998;2022-11-15T10:53:24;3.47;;;3.17;;
1350;SDS011;669;50.206;9.998;2022-11-15T10:56:00;4.53;;;3.77;;
1350;SDS011;669;50.206;9.998;2022-11-15T10:58:34;4.53;;;4.10;;
1350;SDS011;669;50.206;9.998;2022-11-15T11:01:09;4.87;;;4.23;;
1350;SDS011;669;50.206;9.998;2022-11-15T11:03:39;3.93;;;3.53;;
1350;SDS011;669;50.206;9.998;2022-11-15T11:06:11;4.33;;;4.00;;
1350;SDS011;669;50.206;9.998;2022-11-15T11:08:41;5.60;;;4.10;;
1350;SDS011;669;50.206;9.998;2022-11-15T11:11:21;5.53;;;4.50;;
1350;SDS011;669;50.206;9.998;2022-11-15T11:13:50;4.23;;;3.93;;
1350;SDS011;669;50.206;9.998;2022-11-15T11:16:34;4.90;;;4.00;;
1350;SDS011;669;50.206;9.998;2022-11-15T11:19:13;6.83;;;4.10;;
1350;SDS011;669;50.206;9.998;2022-11-15T11:22:00;5.17;;;4.20;;
1350;SDS011;669;50.206;9.998;2022-11-15T11:24:37;5.30;;;4.50;;
1350;SDS011;669;50.206;9.998;2022-11-15T11:27:18;8.20;;;5.23;;
1350;SDS011;669;50.206;9.998;2022-11-15T11:30:00;6.97;;;4.70;;
1350;SDS011;669;50.206;9.998;2022-11-15T11:32:35;6.63;;;4.90;;
1350;SDS011;669;50.206;9.998;2022-11-15T11:35:22;4.37;;;3.97;;
1350;SDS011;669;50.206;9.998;2022-11-15T11:37:59;4.90;;;4.40;;
1350;SDS011;669;50.206;9.998;2022-11-15T11:40:43;4.93;;;4.40;;
1350;SDS011;669;50.206;9.998;2022-11-15T11:43:27;5.13;;;4.67;;
1350;SDS011;669;50.206;9.998;2022-11-15T11:46:10;4.13;;;3.73;;
1350;SDS011;669;50.206;9.998;2022-11-15T11:48:57;4.10;;;3.70;;
1350;SDS011;669;50.206;9.998;2022-11-15T11:51:32;4.23;;;3.63;;
1350;SDS011;669;50.206;9.998;2022-11-15T11:54:09;4.97;;;3.67;;
1350;SDS011;669;50.206;9.998;2022-11-15T11:56:41;4.23;;;3.10;;
1350;SDS011;669;50.206;9.998;2022-11-15T11:59:13;7.10;;;4.00;;
1350;SDS011;669;50.206;9.998;2022-11-15T12:01:50;4.13;;;3.77;;
1350;SDS011;669;50.206;9.998;2022-11-15T12:04:19;4.20;;;3.83;;
1350;SDS011;669;50.206;9.998;2022-11-15T12:06:51;5.03;;;4.63;;
1350;SDS011;669;50.206;9.998;2022-11-15T12:09:26;3.77;;;3.30;;
1350;SDS011;669;50.206;9.998;2022-11-15T12:12:00;4.13;;;3.83;;
1350;SDS011;669;50.206;9.998;2022-11-15T12:14:35;4.43;;;4.00;;
1350;SDS011;669;50.206;9.998;2022-11-15T12:17:08;5.20;;;3.83;;
1350;SDS011;669;50.206;9.998;2022-11-15T12:19:37;5.47;;;4.80;;
1350;SDS011;669;50.206;9.998;2022-11-15T12:22:08;3.60;;;3.17;;
1350;SDS011;669;50.206;9.998;2022-11-15T12:24:41;3.87;;;3.57;;
1350;SDS011;669;50.206;9.998;2022-11-15T12:27:15;4.30;;;3.83;;
1350;SDS011;669;50.206;9.998;2022-11-15T12:29:52;4.97;;;3.90;;
1350;SDS011;669;50.206;9.998;2022-11-15T12:32:25;5.20;;;4.43;;
1350;SDS011;669;50.206;9.998;2022-11-15T12:34:56;3.97;;;3.70;;
1350;SDS011;669;50.206;9.998;2022-11-15T12:37:33;6.23;;;4.60;;
1350;SDS011;669;50.206;9.998;2022-11-15T12:40:19;5.07;;;4.37;;
1350;SDS011;669;50.206;9.998;2022-11-15T12:46:05;4.80;;;4.40;;
1350;SDS011;669;50.206;9.998;2022-11-15T12:57:30;4.37;;;4.07;;
1350;SDS011;669;50.206;9.998;2022-11-15T13:03:18;4.20;;;3.80;;
1350;SDS011;669;50.206;9.998;2022-11-15T13:08:58;5.90;;;4.60;;
1350;SDS011;669;50.206;9.998;2022-11-15T13:11:41;6.30;;;4.53;;
1350;SDS011;669;50.206;9.998;2022-11-15T13:17:26;10.40;;;4.77;;
1350;SDS011;669;50.206;9.998;2022-11-15T13:19:58;6.30;;;5.13;;
1350;SDS011;669;50.206;9.998;2022-11-15T13:22:58;4.57;;;4.17;;
1350;SDS011;669;50.206;9.998;2022-11-15T13:28:36;4.90;;;4.40;;
1350;SDS011;669;50.206;9.998;2022-11-15T13:31:21;4.00;;;3.63;;
1350;SDS011;669;50.206;9.998;2022-11-15T13:33:55;4.80;;;4.30;;
1350;SDS011;669;50.206;9.998;2022-11-15T13:36:28;4.50;;;4.10;;
1350;SDS011;669;50.206;9.998;2022-11-15T13:39:00;4.40;;;4.00;;
1350;SDS011;669;50.206;9.998;2022-11-15T13:41:30;4.30;;;3.90;;
1350;SDS011;669;50.206;9.998;2022-11-15T13:43:59;6.17;;;4.97;;
1350;SDS011;669;50.206;9.998;2022-11-15T13:46:30;5.67;;;4.43;;
1350;SDS011;669;50.206;9.998;2022-11-15T13:48:59;6.47;;;4.90;;
1350;SDS011;669;50.206;9.998;2022-11-15T13:51:34;6.50;;;5.13;;
1350;SDS011;669;50.206;9.998;2022-11-15T13:54:07;5.20;;;3.80;;
1350;SDS011;669;50.206;9.998;2022-11-15T13:56:44;5.60;;;5.20;;
1350;SDS011;669;50.206;9.998;2022-11-15T13:59:23;5.53;;;4.77;;
1350;SDS011;669;50.206;9.998;2022-11-15T14:01:54;6.70;;;4.47;;
1350;SDS011;669;50.206;9.998;2022-11-15T14:04:25;5.43;;;4.93;;
1350;SDS011;669;50.206;9.998;2022-11-15T14:06:56;6.20;;;4.60;;
1350;SDS011;669;50.206;9.998;2022-11-15T14:09:30;6.80;;;5.70;;
1350;SDS011;669;50.206;9.998;2022-11-15T14:14:50;6.80;;;5.47;;
1350;SDS011;669;50.206;9.998;2022-11-15T14:17:21;6.50;;;5.33;;
1350;SDS011;669;50.206;9.998;2022-11-15T14:20:00;5.27;;;4.77;;
1350;SDS011;669;50.206;9.998;2022-11-15T14:22:29;5.50;;;5.00;;
1350;SDS011;669;50.206;9.998;2022-11-15T14:25:05;4.33;;;3.93;;
1350;SDS011;669;50.206;9.998;2022-11-15T14:30:36;4.30;;;3.90;;
1350;SDS011;669;50.206;9.998;2022-11-15T14:33:17;3.43;;;3.13;;
1350;SDS011;669;50.206;9.998;2022-11-15T14:35:47;4.20;;;3.50;;
1350;SDS011;669;50.206;9.998;2022-11-15T14:38:15;2.90;;;2.70;;
1350;SDS011;669;50.206;9.998;2022-11-15T14:40:43;3.77;;;3.37;;
1350;SDS011;669;50.206;9.998;2022-11-15T14:43:12;3.40;;;3.10;;
1350;SDS011;669;50.206;9.998;2022-11-15T14:45:40;4.20;;;3.80;;
1350;SDS011;669;50.206;9.998;2022-11-15T14:48:08;2.87;;;2.67;;
1350;SDS011;669;50.206;9.998;2022-11-15T14:50:37;4.37;;;3.10;;
1350;SDS011;669;50.206;9.998;2022-11-15T14:53:05;3.13;;;2.77;;
1350;SDS011;669;50.206;9.998;2022-11-15T14:55:34;3.07;;;2.70;;
1350;SDS011;669;50.206;9.998;2022-11-15T14:58:03;3.17;;;2.77;;
1350;SDS011;669;50.206;9.998;2022-11-15T15:00:33;3.00;;;2.70;;
1350;SDS011;669;50.206;9.998;2022-11-15T15:03:03;4.40;;;2.40;;
1350;SDS011;669;50.206;9.998;2022-11-15T15:05:32;3.00;;;2.80;;
1350;SDS011;669;50.206;9.998;2022-11-15T15:08:03;2.50;;;2.40;;
1350;SDS011;669;50.206;9.998;2022-11-15T15:10:32;3.40;;;2.40;;
1350;SDS011;669;50.206;9.998;2022-11-15T15:13:08;2.50;;;2.30;;
1350;SDS011;669;50.206;9.998;2022-11-15T15:15:41;2.40;;;2.20;;
1350;SDS011;669;50.206;9.998;2022-11-15T15:18:09;3.33;;;2.77;;
1350;SDS011;669;50.206;9.998;2022-11-15T15:20:38;3.07;;;2.87;;
1350;SDS011;669;50.206;9.998;2022-11-15T15:23:10;3.23;;;2.93;;
1350;SDS011;669;50.206;9.998;2022-11-15T15:25:43;2.83;;;2.63;;
1350;SDS011;669;50.206;9.998;2022-11-15T15:28:12;4.80;;;3.17;;
1350;SDS011;669;50.206;9.998;2022-11-15T15:30:40;2.80;;;2.60;;
1350;SDS011;669;50.206;9.998;2022-11-15T15:33:09;3.50;;;3.20;;
1350;SDS011;669;50.206;9.998;2022-11-15T15:35:37;2.80;;;2.60;;
1350;SDS011;669;50.206;9.998;2022-11-15T15:38:05;2.83;;;2.53;;
1350;SDS011;669;50.206;9.998;2022-11-15T15:40:34;2.83;;;2.57;;
1350;SDS011;669;50.206;9.998;2022-11-15T15:43:02;3.33;;;3.10;;
1350;SDS011;669;50.206;9.998;2022-11-15T15:45:30;3.80;;;3.50;;
1350;SDS011;669;50.206;9.998;2022-11-15T15:47:59;2.87;;;2.57;;
1350;SDS011;669;50.206;9.998;2022-11-15T15:50:27;2.87;;;2.67;;
1350;SDS011;669;50.206;9.998;2022-11-15T15:52:57;3.00;;;2.80;;
1350;SDS011;669;50.206;9.998;2022-11-15T15:55:27;2.70;;;2.50;;
1350;SDS011;669;50.206;9.998;2022-11-15T15:57:57;3.20;;;2.90;;
1350;SDS011;669;50.206;9.998;2022-11-15T16:00:25;3.00;;;2.60;;
1350;SDS011;669;50.206;9.998;2022-11-15T16:02:53;3.97;;;2.97;;
1350;SDS011;669;50.206;9.998;2022-11-15T16:05:21;3.00;;;2.80;;
1350;SDS011;669;50.206;9.998;2022-11-15T16:07:49;3.53;;;3.23;;
1350;SDS011;669;50.206;9.998;2022-11-15T16:10:20;3.63;;;3.33;;
1350;SDS011;669;50.206;9.998;2022-11-15T16:12:51;4.07;;;3.50;;
1350;SDS011;669;50.206;9.998;2022-11-15T16:15:21;3.97;;;3.57;;
1350;SDS011;669;50.206;9.998;2022-11-15T16:17:51;3.83;;;3.50;;
1350;SDS011;669;50.206;9.998;2022-11-15T16:20:22;3.83;;;3.30;;
1350;SDS011;669;50.206;9.998;2022-11-15T16:22:57;4.27;;;3.87;;
1350;SDS011;669;50.206;9.998;2022-11-15T16:25:33;3.20;;;2.90;;
1350;SDS011;669;50.206;9.998;2022-11-15T16:28:05;3.43;;;3.13;;
1350;SDS011;669;50.206;9.998;2022-11-15T16:30:40;3.50;;;2.70;;
1350;SDS011;669;50.206;9.998;2022-11-15T16:33:08;4.37;;;3.40;;
1350;SDS011;669;50.206;9.998;2022-11-15T16:35:36;3.67;;;3.37;;
1350;SDS011;669;50.206;9.998;2022-11-15T16:38:04;2.80;;;2.60;;
1350;SDS011;669;50.206;9.998;2022-11-15T16:40:32;4.20;;;3.80;;
1350;SDS011;669;50.206;9.998;2022-11-15T16:43:01;3.47;;;3.17;;
1350;SDS011;669;50.206;9.998;2022-11-15T16:45:31;4.33;;;3.93;;